sensor_id;sensor_type;location;lat;lon;timestamp;P1;durP1;ratioP1;P2;durP2;ratioP2
72354;SDS011;60314;55.040;73.076;2023-05-15T15:41:57;65.07;;;38.42;;
72354;SDS011;60314;55.040;73.076;2023-05-15T15:46:58;47.80;;;27.20;;
72354;SDS011;60314;55.040;73.076;2023-05-15T15:52:19;66.70;;;38.53;;
72354;SDS011;60314;55.040;73.076;2023-05-15T15:57:39;72.90;;;39.05;;
72354;SDS011;60314;55.040;73.076;2023-05-15T16:02:59;67.47;;;41.85;;
72354;SDS011;60314;55.040;73.076;2023-05-15T16:08:19;69.35;;;42.28;;
72354;SDS011;60314;55.040;73.076;2023-05-15T16:13:39;70.22;;;41.13;;
72354;SDS011;60314;55.040;73.076;2023-05-15T16:18:59;75.15;;;42.92;;
72354;SDS011;60314;55.040;73.076;2023-05-15T16:24:19;73.80;;;42.00;;
72354;SDS011;60314;55.040;73.076;2023-05-15T16:29:41;68.38;;;40.45;;
72354;SDS011;60314;55.040;73.076;2023-05-15T16:35:01;75.70;;;41.22;;
72354;SDS011;60314;55.040;73.076;2023-05-15T16:40:21;78.22;;;41.63;;
72354;SDS011;60314;55.040;73.076;2023-05-15T16:45:42;73.00;;;41.53;;
72354;SDS011;60314;55.040;73.076;2023-05-15T16:50:46;74.93;;;42.03;;
72354;SDS011;60314;55.040;73.076;2023-05-15T16:55:48;68.57;;;41.40;;
72354;SDS011;60314;55.040;73.076;2023-05-15T17:01:09;73.80;;;41.92;;
72354;SDS011;60314;55.040;73.076;2023-05-15T17:06:29;66.45;;;40.92;;
72354;SDS011;60314;55.040;73.076;2023-05-15T17:11:49;68.28;;;42.75;;
72354;SDS011;60314;55.040;73.076;2023-05-15T17:17:09;74.85;;;43.45;;
72354;SDS011;60314;55.040;73.076;2023-05-15T17:22:30;74.65;;;44.90;;
72354;SDS011;60314;55.040;73.076;2023-05-15T17:27:50;74.13;;;43.67;;
72354;SDS011;60314;55.040;73.076;2023-05-15T17:33:10;74.80;;;42.50;;
72354;SDS011;60314;55.040;73.076;2023-05-15T17:38:31;72.17;;;43.50;;
72354;SDS011;60314;55.040;73.076;2023-05-15T17:43:50;72.13;;;43.92;;
72354;SDS011;60314;55.040;73.076;2023-05-15T17:49:12;76.03;;;44.90;;
72354;SDS011;60314;55.040;73.076;2023-05-15T17:54:32;81.53;;;47.13;;
72354;SDS011;60314;55.040;73.076;2023-05-15T17:59:34;75.00;;;43.05;;
72354;SDS011;60314;55.040;73.076;2023-05-15T18:04:53;72.82;;;44.83;;
72354;SDS011;60314;55.040;73.076;2023-05-15T18:10:14;78.05;;;44.42;;
72354;SDS011;60314;55.040;73.076;2023-05-15T18:15:34;71.35;;;43.85;;
72354;SDS011;60314;55.040;73.076;2023-05-15T18:20:54;66.40;;;42.53;;
72354;SDS011;60314;55.040;73.076;2023-05-15T18:26:14;73.65;;;43.03;;
72354;SDS011;60314;55.040;73.076;2023-05-15T18:31:34;73.07;;;41.90;;
72354;SDS011;60314;55.040;73.076;2023-05-15T18:36:54;78.40;;;44.75;;
72354;SDS011;60314;55.040;73.076;2023-05-15T18:42:14;73.07;;;43.10;;
72354;SDS011;60314;55.040;73.076;2023-05-15T18:47:34;72.78;;;45.35;;
72354;SDS011;60314;55.040;73.076;2023-05-15T18:52:55;80.63;;;46.42;;
72354;SDS011;60314;55.040;73.076;2023-05-15T18:58:14;81.55;;;45.58;;
72354;SDS011;60314;55.040;73.076;2023-05-15T19:03:16;83.73;;;45.93;;
72354;SDS011;60314;55.040;73.076;2023-05-15T19:08:18;84.75;;;45.88;;
72354;SDS011;60314;55.040;73.076;2023-05-15T19:13:38;79.93;;;45.47;;
72354;SDS011;60314;55.040;73.076;2023-05-15T19:18:58;75.33;;;45.10;;
72354;SDS011;60314;55.040;73.076;2023-05-15T19:24:20;82.15;;;44.28;;
72354;SDS011;60314;55.040;73.076;2023-05-15T19:29:40;75.05;;;44.33;;
72354;SDS011;60314;55.040;73.076;2023-05-15T19:35:00;83.22;;;44.08;;
72354;SDS011;60314;55.040;73.076;2023-05-15T19:40:20;79.43;;;43.63;;
72354;SDS011;60314;55.040;73.076;2023-05-15T19:45:40;93.10;;;44.15;;
72354;SDS011;60314;55.040;73.076;2023-05-15T19:51:00;77.45;;;44.40;;
72354;SDS011;60314;55.040;73.076;2023-05-15T19:56:20;83.95;;;44.70;;
72354;SDS011;60314;55.040;73.076;2023-05-15T20:01:41;77.75;;;46.22;;
72354;SDS011;60314;55.040;73.076;2023-05-15T20:07:01;77.40;;;43.72;;
72354;SDS011;60314;55.040;73.076;2023-05-15T20:12:02;75.07;;;43.05;;
72354;SDS011;60314;55.040;73.076;2023-05-15T20:17:24;74.43;;;42.28;;
72354;SDS011;60314;55.040;73.076;2023-05-15T20:22:45;75.47;;;43.40;;
72354;SDS011;60314;55.040;73.076;2023-05-15T20:28:05;70.68;;;41.28;;
72354;SDS011;60314;55.040;73.076;2023-05-15T20:33:24;71.95;;;42.10;;
72354;SDS011;60314;55.040;73.076;2023-05-15T20:38:45;85.63;;;48.38;;
72354;SDS011;60314;55.040;73.076;2023-05-15T20:44:05;70.40;;;40.85;;
72354;SDS011;60314;55.040;73.076;2023-05-15T20:49:25;74.45;;;40.47;;
72354;SDS011;60314;55.040;73.076;2023-05-15T20:54:45;72.15;;;40.63;;
72354;SDS011;60314;55.040;73.076;2023-05-15T21:00:06;71.20;;;38.43;;
72354;SDS011;60314;55.040;73.076;2023-05-15T21:05:39;89.28;;;50.20;;
72354;SDS011;60314;55.040;73.076;2023-05-15T21:10:59;75.00;;;40.67;;
72354;SDS011;60314;55.040;73.076;2023-05-15T21:16:01;68.93;;;35.13;;
72354;SDS011;60314;55.040;73.076;2023-05-15T21:21:02;68.82;;;38.35;;
72354;SDS011;60314;55.040;73.076;2023-05-15T21:26:25;66.13;;;35.72;;
72354;SDS011;60314;55.040;73.076;2023-05-15T21:31:46;63.55;;;33.85;;
72354;SDS011;60314;55.040;73.076;2023-05-15T21:37:06;67.30;;;37.28;;
72354;SDS011;60314;55.040;73.076;2023-05-15T21:42:27;56.75;;;33.65;;
72354;SDS011;60314;55.040;73.076;2023-05-15T21:47:49;60.63;;;34.10;;
72354;SDS011;60314;55.040;73.076;2023-05-15T21:53:09;69.55;;;37.78;;
72354;SDS011;60314;55.040;73.076;2023-05-15T21:58:29;82.28;;;43.45;;
72354;SDS011;60314;55.040;73.076;2023-05-15T22:03:50;67.68;;;37.30;;
72354;SDS011;60314;55.040;73.076;2023-05-15T22:09:09;66.90;;;36.58;;
72354;SDS011;60314;55.040;73.076;2023-05-15T22:14:29;60.65;;;33.78;;
72354;SDS011;60314;55.040;73.076;2023-05-15T22:19:49;54.80;;;32.40;;
72354;SDS011;60314;55.040;73.076;2023-05-15T22:24:51;53.10;;;31.15;;
72354;SDS011;60314;55.040;73.076;2023-05-15T22:29:53;56.42;;;29.63;;
72354;SDS011;60314;55.040;73.076;2023-05-15T22:35:13;48.97;;;27.08;;
72354;SDS011;60314;55.040;73.076;2023-05-15T22:40:32;45.67;;;24.10;;
72354;SDS011;60314;55.040;73.076;2023-05-15T22:45:52;38.10;;;22.77;;
72354;SDS011;60314;55.040;73.076;2023-05-15T22:51:13;39.97;;;22.70;;
72354;SDS011;60314;55.040;73.076;2023-05-15T22:56:34;42.80;;;22.83;;
72354;SDS011;60314;55.040;73.076;2023-05-15T23:01:54;42.05;;;22.65;;
72354;SDS011;60314;55.040;73.076;2023-05-15T23:07:14;48.63;;;24.90;;
72354;SDS011;60314;55.040;73.076;2023-05-15T23:12:35;48.95;;;25.98;;
72354;SDS011;60314;55.040;73.076;2023-05-15T23:17:55;51.00;;;28.08;;
72354;SDS011;60314;55.040;73.076;2023-05-15T23:23:15;50.22;;;27.52;;
72354;SDS011;60314;55.040;73.076;2023-05-15T23:28:35;53.00;;;27.48;;
72354;SDS011;60314;55.040;73.076;2023-05-15T23:33:37;49.40;;;29.05;;
72354;SDS011;60314;55.040;73.076;2023-05-15T23:38:57;54.30;;;30.08;;
72354;SDS011;60314;55.040;73.076;2023-05-15T23:44:17;55.67;;;29.48;;
72354;SDS011;60314;55.040;73.076;2023-05-15T23:49:37;51.53;;;29.15;;
72354;SDS011;60314;55.040;73.076;2023-05-15T23:54:57;53.13;;;29.00;;
